St. Louis Express — WDD3825 — position and weather

sailwx.info

Track history (hours):
 
Tides and Currents Weather Stations Pressure Air Temp Water Temp Dewpoint Dewpoint Depression Visibility Wind Speed Wind Dir Waves Ship Positions

St. Louis Express

Owner: Marine Transport Management, Inc (Nick Orfanidis), Jacksonville, FL. More information available from US FCC via Universal Licensing System.

Last reported at 2017-Jun-25 14:00 UTC. Time now 2017-Jun-26 08:54 UTC.
Position N 48°30' W 016°00'.

Type: Cargo ship. MMSI: 367136680.

Wind from 200 at 14 knots

Barometer 1017.0 mb
Air temperature 21.0 ° C
Visibility: greater than 10.8 NM
Dewpoint 16.6 ° C
Water temperature 18.0 ° C

Date/timePositionNaut miles runAvg speedWind from/ knotsBaromVisibWave heightAir tempDewpointWater temp
2017-Jun-25 14:00N 48°30' W 016°00'39619.8 200 / 141017.010.8 21.016.618.0
2017-Jun-24 18:00N 47°06' W 025°36'8822.0 230 / 131021.6 0.0 15.514.815.0
2017-Jun-24 14:00N 46°48' W 027°42'3417.0 230 / 141023.2 5.4 20.117.218.0
2017-Jun-24 12:00N 46°30' W 028°24'23919.9 230 / 151023.7 5.4 18.016.318.0
2017-Jun-24 00:00N 45°12' W 033°48'16120.1 210 / 181024.5 18.214.418.0
2017-Jun-23 16:00N 44°12' W 037°18'7518.8 180 / 181022.210.8 21.916.319.0
2017-Jun-23 12:00N 43°42' W 038°54'24020.0 200 / 181022.0 20.813.418.0
2017-Jun-23 00:00N 41°48' W 043°42'17819.7 210 / 181020.5 18.416.820.0
2017-Jun-22 15:00N 41°00' W 047°30'6220.6 200 / 141019.610.8 22.217.415.0
2017-Jun-22 12:00N 40°42' W 048°48'24520.4 230 / 181019.8 24.518.224.0
2017-Jun-22 00:00N 39°30' W 053°54'12020.0 210 / 201021.6 21.619.925.0
2017-Jun-21 18:00N 39°00' W 056°24'6622.2 200 / 191020.910.8 25.521.226.0
2017-Jun-21 15:00N 38°48' W 057°48'5317.6 200 / 141022.810.8 25.823.525.0
2017-Jun-21 12:00N 38°36' W 058°54'1414.1 210 / 151022.5 27.619.325.0
2017-Jun-21 11:00N 38°36' W 059°12'14220.3 180 / 201022.7 23.921.827.0
2017-Jun-21 04:00N 38°18' W 062°12'22822.8 200 / 181022.910.8 24.521.529.0
2017-Jun-20 18:00N 37°30' W 066°54'5226.2 200 / 201021.410.8 26.921.228.0
2017-Jun-20 16:00N 37°30' W 068°00'19922.1 200 / 181022.210.8 26.523.029.0
2017-Jun-20 07:00N 36°54' W 072°06'17621.7 190 / 211017.5 5.4 25.523.828.0
2017-Jun-19 22:53N 36°48' W 075°46'718.0
2017-Jun-19 22:30N 36°52' W 075°53'713.7
2017-Jun-19 22:00N 36°57' W 075°60'612.8
2017-Jun-19 21:30N 36°59' W 076°07'815.9
2017-Jun-19 21:00N 37°00' W 076°17'5 9.2
2017-Jun-19 20:30N 36°56' W 076°20'1 1.7
2017-Jun-19 19:59N 36°55' W 076°20'0 0.0
2017-Jun-19 19:30N 36°55' W 076°20'0 0.0
2017-Jun-19 18:59N 36°55' W 076°20'0 0.0
2017-Jun-19 18:29N 36°55' W 076°20'0 0.0
2017-Jun-19 17:59N 36°55' W 076°20'0 0.0
2017-Jun-19 17:29N 36°55' W 076°20'0 0.0
2017-Jun-19 16:59N 36°55' W 076°20'0 0.0
2017-Jun-19 16:30N 36°55' W 076°20'0 0.0
2017-Jun-19 15:59N 36°55' W 076°20'0 0.0
2017-Jun-19 15:30N 36°55' W 076°20'0 0.0
2017-Jun-19 14:59N 36°55' W 076°20'0 0.0
2017-Jun-19 14:29N 36°55' W 076°20'0 0.0
2017-Jun-19 13:29N 36°55' W 076°20'0 0.0
2017-Jun-19 12:59N 36°55' W 076°20'0 0.0
2017-Jun-19 12:29N 36°55' W 076°20'0 0.0
2017-Jun-19 11:59N 36°55' W 076°20'0 0.0
2017-Jun-19 11:29N 36°55' W 076°20'0 0.0
2017-Jun-19 11:00N 36°55' W 076°20'0 0.0
2017-Jun-19 10:29N 36°55' W 076°20'0 0.0
2017-Jun-19 09:59N 36°55' W 076°20'0 0.0
2017-Jun-19 09:29N 36°55' W 076°20'0 0.0
2017-Jun-19 08:59N 36°55' W 076°20'0 0.0
2017-Jun-19 08:29N 36°55' W 076°20'0 0.0
2017-Jun-19 07:59N 36°55' W 076°20'0 0.0
2017-Jun-19 07:30N 36°55' W 076°20'0 0.0
2017-Jun-19 07:00N 36°55' W 076°20'0 0.0
2017-Jun-19 06:29N 36°55' W 076°20'0 0.0
2017-Jun-19 05:59N 36°55' W 076°20'0 0.0
2017-Jun-19 05:30N 36°55' W 076°20'0 0.0
2017-Jun-19 04:59N 36°55' W 076°20'0 0.0
2017-Jun-19 04:30N 36°55' W 076°20'0 0.0
2017-Jun-19 04:00N 36°55' W 076°20'0 0.0
2017-Jun-19 03:30N 36°55' W 076°20'0 0.0
2017-Jun-19 03:00N 36°55' W 076°20'0 0.0
2017-Jun-19 02:29N 36°55' W 076°20'0 0.0
2017-Jun-19 02:00N 36°55' W 076°20'0 0.0
2017-Jun-19 01:30N 36°55' W 076°20'0 0.0
2017-Jun-19 00:59N 36°55' W 076°20'0 0.0
2017-Jun-19 00:30N 36°55' W 076°20'0 0.0
2017-Jun-18 23:59N 36°55' W 076°20'0 0.0
2017-Jun-18 23:29N 36°55' W 076°20'0 0.0
2017-Jun-18 23:00N 36°55' W 076°20'0 0.0
2017-Jun-18 22:29N 36°55' W 076°20'0 0.0
2017-Jun-18 22:00N 36°55' W 076°20'1 2.5
2017-Jun-18 21:30N 36°57' W 076°20'4 6.9
2017-Jun-18 20:53N 37°00' W 076°17'6 8.7
2017-Jun-18 20:10N 36°59' W 076°10'2 9.6
2017-Jun-18 20:00N 36°59' W 076°08'510.5
2017-Jun-18 19:30N 36°57' W 076°01'3 7.1
2017-Jun-18 19:00N 36°57' W 075°57'714.7
2017-Jun-18 18:30N 36°52' W 075°51'21817.4
2017-Jun-18 06:00N 33°24' W 077°12'3919.3 200 / 191015.110.8 26.324.328.0
2017-Jun-18 04:00N 33°00' W 077°48'11920.5 180 / 121015.1 26.524.629.0
2017-Jun-17 22:10N 32°03' W 079°53'320.4
2017-Jun-17 22:00N 32°02' W 079°56'1020.1
2017-Jun-17 21:30N 31°58' W 080°07'1020.3
2017-Jun-17 21:01N 31°57' W 080°19'1020.3
2017-Jun-17 20:31N 31°57' W 080°31'917.8
2017-Jun-17 20:00N 31°58' W 080°41'714.5
2017-Jun-17 19:30N 32°01' W 080°49'612.1
2017-Jun-17 19:00N 32°03' W 080°56'4 8.7
2017-Jun-17 18:30N 32°06' W 080°60'4 7.6
2017-Jun-17 18:00N 32°05' W 081°04'2 4.8
2017-Jun-17 17:30N 32°06' W 081°06'2 3.6
2017-Jun-17 16:59N 32°07' W 081°08'0 0.0
2017-Jun-17 16:29N 32°07' W 081°08'0 0.0
2017-Jun-17 15:59N 32°07' W 081°08'0 0.0
2017-Jun-17 15:29N 32°07' W 081°08'0 0.0
2017-Jun-17 14:59N 32°07' W 081°08'0 0.0
2017-Jun-17 14:29N 32°07' W 081°08'0 0.0
2017-Jun-17 13:29N 32°07' W 081°08'0 0.0
2017-Jun-17 12:59N 32°07' W 081°08'0 0.0
2017-Jun-17 12:23N 32°07' W 081°08'0 0.0
2017-Jun-17 11:59N 32°07' W 081°08'0 0.0
2017-Jun-17 11:29N 32°07' W 081°08'0 0.0
2017-Jun-17 10:53N 32°07' W 081°08'0 0.0
2017-Jun-17 10:29N 32°07' W 081°08'0 0.0
2017-Jun-17 09:59N 32°07' W 081°08'0 0.0
2017-Jun-17 09:29N 32°07' W 081°08'0 0.0
2017-Jun-17 08:53N 32°07' W 081°08'0 0.0
2017-Jun-17 08:23N 32°07' W 081°08'0 0.0
2017-Jun-17 07:59N 32°07' W 081°08'0 0.0
2017-Jun-17 07:29N 32°07' W 081°08'0 0.0
2017-Jun-17 06:59N 32°07' W 081°08'0 0.0
2017-Jun-17 06:29N 32°07' W 081°08'0 0.0
2017-Jun-17 05:59N 32°07' W 081°08'0 0.0
2017-Jun-17 05:29N 32°07' W 081°08'0 0.0
2017-Jun-17 04:59N 32°07' W 081°08'0 0.0
2017-Jun-17 04:17N 32°07' W 081°08'0 0.0
2017-Jun-17 03:59N 32°07' W 081°08'0 0.0
2017-Jun-17 03:17N 32°07' W 081°08'0 0.0
2017-Jun-17 02:59N 32°07' W 081°08'0 0.0
2017-Jun-17 02:29N 32°07' W 081°08'0 0.0
2017-Jun-17 01:59N 32°07' W 081°08'0 0.0
2017-Jun-17 01:23N 32°07' W 081°08'0 0.0
2017-Jun-17 00:59N 32°07' W 081°08'0 0.0
2017-Jun-17 00:23N 32°07' W 081°08'0 0.0
2017-Jun-16 23:59N 32°07' W 081°08'0 0.0
2017-Jun-16 23:29N 32°07' W 081°08'0 0.0
2017-Jun-16 22:59N 32°07' W 081°08'0 0.0
2017-Jun-16 22:29N 32°07' W 081°08'0 0.0
2017-Jun-16 21:53N 32°07' W 081°08'0 0.0
2017-Jun-16 21:29N 32°07' W 081°08'0 0.0
2017-Jun-16 20:53N 32°07' W 081°08'0 0.0
2017-Jun-16 20:29N 32°07' W 081°08'0 0.0
2017-Jun-16 19:59N 32°07' W 081°08'0 0.0
2017-Jun-16 19:29N 32°07' W 081°08'0 0.0
2017-Jun-16 18:53N 32°07' W 081°08'0 0.0
2017-Jun-16 18:23N 32°07' W 081°08'0 0.0
2017-Jun-16 17:59N 32°07' W 081°08'0 0.0
2017-Jun-16 17:29N 32°07' W 081°08'0 0.0
2017-Jun-16 16:56N 32°07' W 081°08'0 1.1
2017-Jun-16 16:30N 32°08' W 081°08'2 3.1
2017-Jun-16 16:00N 32°06' W 081°07'3 6.3
2017-Jun-16 15:30N 32°05' W 081°04'4 7.8
2017-Jun-16 15:00N 32°05' W 080°59'510.3
2017-Jun-16 14:30N 32°02' W 080°55'1313.0
2017-Jun-16 13:30N 31°57' W 080°41'714.9
2017-Jun-16 13:01N 31°51' W 080°35'2322.8
2017-Jun-16 12:00N 31°30' W 080°24'9418.7 210 / 131013.610.8 25.023.728.0
2017-Jun-16 07:00N 30°06' W 079°36'2424.0 230 / 81014.110.8 25.822.930.0
2017-Jun-16 06:00N 29°42' W 079°36'4221.0 230 / 61015.010.8 24.921.630.0
2017-Jun-16 04:00N 29°00' W 079°36'14522.2 080 / 71015.710.8 25.022.030.0
2017-Jun-15 21:29N 26°36' W 079°46'1124.0
2017-Jun-15 21:01N 26°24' W 079°47'1224.1
2017-Jun-15 20:30N 26°12' W 079°49'1223.9
2017-Jun-15 20:01N 26°00' W 079°50'1223.9
2017-Jun-15 19:31N 25°49' W 079°51'1223.7
2017-Jun-15 19:01N 25°37' W 079°53'1223.3
2017-Jun-15 18:30N 25°25' W 079°54'1223.1
2017-Jun-15 18:00N 25°15' W 080°00'5326.0
2017-Jun-15 16:00N 24°30' W 080°30'   110 / 161017.010.8 30.025.831.0
Track history (hours):
 
Tides and Currents Weather Stations Pressure Air Temp Water Temp Dewpoint Dewpoint Depression Visibility Wind Speed Wind Dir Waves Ship Positions

St. Louis Express

Owner: Marine Transport Management, Inc (Nick Orfanidis), Jacksonville, FL. More information available from US FCC via Universal Licensing System.

Last reported at 2017-Jun-25 14:00 UTC. Time now 2017-Jun-26 08:54 UTC.
Position N 48°30' W 016°00'.

Type: Cargo ship. MMSI: 367136680.

Wind from 200 at 14 knots

Barometer 1017.0 mb
Air temperature 21.0 ° C
Visibility: greater than 10.8 NM
Dewpoint 16.6 ° C
Water temperature 18.0 ° C

Date/timePositionNaut miles runAvg speedWind from/ knotsBaromVisibWave heightAir tempDewpointWater temp
2017-Jun-25 14:00N 48°30' W 016°00'39619.8 200 / 141017.010.8 21.016.618.0
2017-Jun-24 18:00N 47°06' W 025°36'8822.0 230 / 131021.6 0.0 15.514.815.0
2017-Jun-24 14:00N 46°48' W 027°42'3417.0 230 / 141023.2 5.4 20.117.218.0
2017-Jun-24 12:00N 46°30' W 028°24'23919.9 230 / 151023.7 5.4 18.016.318.0
2017-Jun-24 00:00N 45°12' W 033°48'16120.1 210 / 181024.5 18.214.418.0
2017-Jun-23 16:00N 44°12' W 037°18'7518.8 180 / 181022.210.8 21.916.319.0
2017-Jun-23 12:00N 43°42' W 038°54'24020.0 200 / 181022.0 20.813.418.0
2017-Jun-23 00:00N 41°48' W 043°42'17819.7 210 / 181020.5 18.416.820.0
2017-Jun-22 15:00N 41°00' W 047°30'6220.6 200 / 141019.610.8 22.217.415.0
2017-Jun-22 12:00N 40°42' W 048°48'24520.4 230 / 181019.8 24.518.224.0
2017-Jun-22 00:00N 39°30' W 053°54'12020.0 210 / 201021.6 21.619.925.0
2017-Jun-21 18:00N 39°00' W 056°24'6622.2 200 / 191020.910.8 25.521.226.0
2017-Jun-21 15:00N 38°48' W 057°48'5317.6 200 / 141022.810.8 25.823.525.0
2017-Jun-21 12:00N 38°36' W 058°54'1414.1 210 / 151022.5 27.619.325.0
2017-Jun-21 11:00N 38°36' W 059°12'14220.3 180 / 201022.7 23.921.827.0
2017-Jun-21 04:00N 38°18' W 062°12'22822.8 200 / 181022.910.8 24.521.529.0
2017-Jun-20 18:00N 37°30' W 066°54'5226.2 200 / 201021.410.8 26.921.228.0
2017-Jun-20 16:00N 37°30' W 068°00'19922.1 200 / 181022.210.8 26.523.029.0
2017-Jun-20 07:00N 36°54' W 072°06'17621.7 190 / 211017.5 5.4 25.523.828.0
2017-Jun-19 22:53N 36°48' W 075°46'718.0
2017-Jun-19 22:30N 36°52' W 075°53'713.7
2017-Jun-19 22:00N 36°57' W 075°60'612.8
2017-Jun-19 21:30N 36°59' W 076°07'815.9
2017-Jun-19 21:00N 37°00' W 076°17'5 9.2
2017-Jun-19 20:30N 36°56' W 076°20'1 1.7
2017-Jun-19 19:59N 36°55' W 076°20'0 0.0
2017-Jun-19 19:30N 36°55' W 076°20'0 0.0
2017-Jun-19 18:59N 36°55' W 076°20'0 0.0
2017-Jun-19 18:29N 36°55' W 076°20'0 0.0
2017-Jun-19 17:59N 36°55' W 076°20'0 0.0
2017-Jun-19 17:29N 36°55' W 076°20'0 0.0
2017-Jun-19 16:59N 36°55' W 076°20'0 0.0
2017-Jun-19 16:30N 36°55' W 076°20'0 0.0
2017-Jun-19 15:59N 36°55' W 076°20'0 0.0
2017-Jun-19 15:30N 36°55' W 076°20'0 0.0
2017-Jun-19 14:59N 36°55' W 076°20'0 0.0
2017-Jun-19 14:29N 36°55' W 076°20'0 0.0
2017-Jun-19 13:29N 36°55' W 076°20'0 0.0
2017-Jun-19 12:59N 36°55' W 076°20'0 0.0
2017-Jun-19 12:29N 36°55' W 076°20'0 0.0
2017-Jun-19 11:59N 36°55' W 076°20'0 0.0
2017-Jun-19 11:29N 36°55' W 076°20'0 0.0
2017-Jun-19 11:00N 36°55' W 076°20'0 0.0
2017-Jun-19 10:29N 36°55' W 076°20'0 0.0
2017-Jun-19 09:59N 36°55' W 076°20'0 0.0
2017-Jun-19 09:29N 36°55' W 076°20'0 0.0
2017-Jun-19 08:59N 36°55' W 076°20'0 0.0
2017-Jun-19 08:29N 36°55' W 076°20'0 0.0
2017-Jun-19 07:59N 36°55' W 076°20'0 0.0
2017-Jun-19 07:30N 36°55' W 076°20'0 0.0
2017-Jun-19 07:00N 36°55' W 076°20'0 0.0
2017-Jun-19 06:29N 36°55' W 076°20'0 0.0
2017-Jun-19 05:59N 36°55' W 076°20'0 0.0
2017-Jun-19 05:30N 36°55' W 076°20'0 0.0
2017-Jun-19 04:59N 36°55' W 076°20'0 0.0
2017-Jun-19 04:30N 36°55' W 076°20'0 0.0
2017-Jun-19 04:00N 36°55' W 076°20'0 0.0
2017-Jun-19 03:30N 36°55' W 076°20'0 0.0
2017-Jun-19 03:00N 36°55' W 076°20'0 0.0
2017-Jun-19 02:29N 36°55' W 076°20'0 0.0
2017-Jun-19 02:00N 36°55' W 076°20'0 0.0
2017-Jun-19 01:30N 36°55' W 076°20'0 0.0
2017-Jun-19 00:59N 36°55' W 076°20'0 0.0
2017-Jun-19 00:30N 36°55' W 076°20'0 0.0
2017-Jun-18 23:59N 36°55' W 076°20'0 0.0
2017-Jun-18 23:29N 36°55' W 076°20'0 0.0
2017-Jun-18 23:00N 36°55' W 076°20'0 0.0
2017-Jun-18 22:29N 36°55' W 076°20'0 0.0
2017-Jun-18 22:00N 36°55' W 076°20'1 2.5
2017-Jun-18 21:30N 36°57' W 076°20'4 6.9
2017-Jun-18 20:53N 37°00' W 076°17'6 8.7
2017-Jun-18 20:10N 36°59' W 076°10'2 9.6
2017-Jun-18 20:00N 36°59' W 076°08'510.5
2017-Jun-18 19:30N 36°57' W 076°01'3 7.1
2017-Jun-18 19:00N 36°57' W 075°57'714.7
2017-Jun-18 18:30N 36°52' W 075°51'21817.4
2017-Jun-18 06:00N 33°24' W 077°12'3919.3 200 / 191015.110.8 26.324.328.0
2017-Jun-18 04:00N 33°00' W 077°48'11920.5 180 / 121015.1 26.524.629.0
2017-Jun-17 22:10N 32°03' W 079°53'320.4
2017-Jun-17 22:00N 32°02' W 079°56'1020.1
2017-Jun-17 21:30N 31°58' W 080°07'1020.3
2017-Jun-17 21:01N 31°57' W 080°19'1020.3
2017-Jun-17 20:31N 31°57' W 080°31'917.8
2017-Jun-17 20:00N 31°58' W 080°41'714.5
2017-Jun-17 19:30N 32°01' W 080°49'612.1
2017-Jun-17 19:00N 32°03' W 080°56'4 8.7
2017-Jun-17 18:30N 32°06' W 080°60'4 7.6
2017-Jun-17 18:00N 32°05' W 081°04'2 4.8
2017-Jun-17 17:30N 32°06' W 081°06'2 3.6
2017-Jun-17 16:59N 32°07' W 081°08'0 0.0
2017-Jun-17 16:29N 32°07' W 081°08'0 0.0
2017-Jun-17 15:59N 32°07' W 081°08'0 0.0
2017-Jun-17 15:29N 32°07' W 081°08'0 0.0
2017-Jun-17 14:59N 32°07' W 081°08'0 0.0
2017-Jun-17 14:29N 32°07' W 081°08'0 0.0
2017-Jun-17 13:29N 32°07' W 081°08'0 0.0
2017-Jun-17 12:59N 32°07' W 081°08'0 0.0
2017-Jun-17 12:23N 32°07' W 081°08'0 0.0
2017-Jun-17 11:59N 32°07' W 081°08'0 0.0
2017-Jun-17 11:29N 32°07' W 081°08'0 0.0
2017-Jun-17 10:53N 32°07' W 081°08'0 0.0
2017-Jun-17 10:29N 32°07' W 081°08'0 0.0
2017-Jun-17 09:59N 32°07' W 081°08'0 0.0
2017-Jun-17 09:29N 32°07' W 081°08'0 0.0
2017-Jun-17 08:53N 32°07' W 081°08'0 0.0
2017-Jun-17 08:23N 32°07' W 081°08'0 0.0
2017-Jun-17 07:59N 32°07' W 081°08'0 0.0
2017-Jun-17 07:29N 32°07' W 081°08'0 0.0
2017-Jun-17 06:59N 32°07' W 081°08'0 0.0
2017-Jun-17 06:29N 32°07' W 081°08'0 0.0
2017-Jun-17 05:59N 32°07' W 081°08'0 0.0
2017-Jun-17 05:29N 32°07' W 081°08'0 0.0
2017-Jun-17 04:59N 32°07' W 081°08'0 0.0
2017-Jun-17 04:17N 32°07' W 081°08'0 0.0
2017-Jun-17 03:59N 32°07' W 081°08'0 0.0
2017-Jun-17 03:17N 32°07' W 081°08'0 0.0
2017-Jun-17 02:59N 32°07' W 081°08'0 0.0
2017-Jun-17 02:29N 32°07' W 081°08'0 0.0
2017-Jun-17 01:59N 32°07' W 081°08'0 0.0
2017-Jun-17 01:23N 32°07' W 081°08'0 0.0
2017-Jun-17 00:59N 32°07' W 081°08'0 0.0
2017-Jun-17 00:23N 32°07' W 081°08'0 0.0
2017-Jun-16 23:59N 32°07' W 081°08'0 0.0
2017-Jun-16 23:29N 32°07' W 081°08'0 0.0
2017-Jun-16 22:59N 32°07' W 081°08'0 0.0
2017-Jun-16 22:29N 32°07' W 081°08'0 0.0
2017-Jun-16 21:53N 32°07' W 081°08'0 0.0
2017-Jun-16 21:29N 32°07' W 081°08'0 0.0
2017-Jun-16 20:53N 32°07' W 081°08'0 0.0
2017-Jun-16 20:29N 32°07' W 081°08'0 0.0
2017-Jun-16 19:59N 32°07' W 081°08'0 0.0
2017-Jun-16 19:29N 32°07' W 081°08'0 0.0
2017-Jun-16 18:53N 32°07' W 081°08'0 0.0
2017-Jun-16 18:23N 32°07' W 081°08'0 0.0
2017-Jun-16 17:59N 32°07' W 081°08'0 0.0
2017-Jun-16 17:29N 32°07' W 081°08'0 0.0
2017-Jun-16 16:56N 32°07' W 081°08'0 1.1
2017-Jun-16 16:30N 32°08' W 081°08'2 3.1
2017-Jun-16 16:00N 32°06' W 081°07'3 6.3
2017-Jun-16 15:30N 32°05' W 081°04'4 7.8
2017-Jun-16 15:00N 32°05' W 080°59'510.3
2017-Jun-16 14:30N 32°02' W 080°55'1313.0
2017-Jun-16 13:30N 31°57' W 080°41'714.9
2017-Jun-16 13:01N 31°51' W 080°35'2322.8
2017-Jun-16 12:00N 31°30' W 080°24'9418.7 210 / 131013.610.8 25.023.728.0
2017-Jun-16 07:00N 30°06' W 079°36'2424.0 230 / 81014.110.8 25.822.930.0
2017-Jun-16 06:00N 29°42' W 079°36'4221.0 230 / 61015.010.8 24.921.630.0
2017-Jun-16 04:00N 29°00' W 079°36'14522.2 080 / 71015.710.8 25.022.030.0
2017-Jun-15 21:29N 26°36' W 079°46'1124.0
2017-Jun-15 21:01N 26°24' W 079°47'1224.1
2017-Jun-15 20:30N 26°12' W 079°49'1223.9
2017-Jun-15 20:01N 26°00' W 079°50'1223.9
2017-Jun-15 19:31N 25°49' W 079°51'1223.7
2017-Jun-15 19:01N 25°37' W 079°53'1223.3
2017-Jun-15 18:30N 25°25' W 079°54'1223.1
2017-Jun-15 18:00N 25°15' W 080°00'5326.0
2017-Jun-15 16:00N 24°30' W 080°30'   110 / 161017.010.8 30.025.831.0

Dump ship's entire track history